Time;durP1;ratioP1;P1;durP2;ratioP2;P2;SDS_P1;SDS_P2;PMS_P1;PMS_P2;Temp;Humidity;BMP_temperature;BMP_pressure;BME280_temperature;BME280_humidity;BME280_pressure;Samples;Min_cycle;Max_cycle;Signal;HPM_P1;HPM_P2
2021/09/25 00:00:11;;;;;;;0.40;0.30;;;11.90;99.90;;;;;;5054087;28;20391;-73
2021/09/25 00:02:36;;;;;;;0.40;0.20;;;11.90;99.90;;;;;;5072419;28;20383;-73
2021/09/25 00:05:04;;;;;;;0.40;0.20;;;11.90;99.90;;;;;;5071786;28;20375;-73
2021/09/25 00:07:29;;;;;;;0.40;0.30;;;11.90;99.90;;;;;;5063423;28;20872;-73
2021/09/25 00:09:55;;;;;;;0.40;0.30;;;11.90;99.90;;;;;;5052318;28;20468;-73
2021/09/25 00:12:21;;;;;;;0.40;0.20;;;11.90;99.90;;;;;;5053842;28;20391;-73
2021/09/25 00:14:47;;;;;;;0.40;0.20;;;11.80;99.90;;;;;;5071784;28;20454;-73
2021/09/25 00:17:14;;;;;;;0.40;0.20;;;11.90;99.90;;;;;;5070980;28;20782;-73
2021/09/25 00:19:41;;;;;;;0.40;0.30;;;11.90;99.90;;;;;;5072692;28;20892;-73
2021/09/25 00:22:07;;;;;;;0.40;0.20;;;11.80;99.90;;;;;;5071332;28;20420;-73
2021/09/25 00:24:33;;;;;;;0.40;0.20;;;11.80;99.90;;;;;;5053687;28;20910;-73
2021/09/25 00:26:59;;;;;;;0.40;0.20;;;11.80;99.90;;;;;;5053884;28;20396;-73
2021/09/25 00:29:25;;;;;;;0.40;0.20;;;11.80;99.90;;;;;;5072024;28;20857;-74
2021/09/25 00:31:51;;;;;;;0.40;0.20;;;11.90;99.90;;;;;;5072117;28;20380;-73
2021/09/25 00:34:16;;;;;;;0.40;0.20;;;11.90;99.90;;;;;;5071095;28;20417;-73
2021/09/25 00:36:42;;;;;;;0.40;0.30;;;11.80;99.90;;;;;;5071804;28;20380;-73
2021/09/25 00:39:08;;;;;;;0.40;0.20;;;11.90;99.90;;;;;;5071295;28;20394;-73
2021/09/25 00:41:33;;;;;;;0.40;0.20;;;11.80;99.90;;;;;;5071928;28;20402;-73
2021/09/25 00:43:59;;;;;;;0.40;0.20;;;11.80;99.90;;;;;;5066143;28;20383;-73
2021/09/25 00:46:25;;;;;;;0.40;0.20;;;11.80;99.90;;;;;;5071148;28;21149;-73
2021/09/25 00:48:51;;;;;;;0.40;0.20;;;11.80;99.90;;;;;;5071410;28;20400;-73
2021/09/25 00:51:17;;;;;;;0.40;0.20;;;11.70;99.90;;;;;;5070741;28;20446;-73
2021/09/25 00:53:44;;;;;;;0.40;0.30;;;11.70;99.90;;;;;;5071525;28;20422;-73
2021/09/25 00:56:10;;;;;;;0.40;0.30;;;11.80;99.90;;;;;;5070708;28;20441;-73
2021/09/25 00:58:37;;;;;;;0.40;0.30;;;11.80;99.90;;;;;;5071663;28;20872;-73
2021/09/25 01:01:03;;;;;;;0.40;0.20;;;11.90;99.90;;;;;;5071325;28;20380;-73
2021/09/25 01:03:29;;;;;;;0.40;0.20;;;11.80;99.90;;;;;;5071414;28;20428;-73
2021/09/25 01:05:55;;;;;;;0.40;0.30;;;11.80;99.90;;;;;;5071642;28;20762;-73
2021/09/25 01:08:23;;;;;;;0.40;0.30;;;11.80;99.90;;;;;;5055030;28;20469;-73
2021/09/25 01:10:53;;;;;;;0.40;0.30;;;11.80;99.90;;;;;;5033735;28;20393;-73
2021/09/25 01:13:20;;;;;;;0.40;0.20;;;11.60;99.90;;;;;;5057875;28;20404;-73
2021/09/25 01:15:46;;;;;;;0.40;0.30;;;11.60;99.90;;;;;;5070869;28;20387;-73
2021/09/25 01:18:12;;;;;;;0.40;0.30;;;11.70;99.90;;;;;;5070667;28;20461;-73
2021/09/25 01:20:38;;;;;;;0.40;0.30;;;11.60;99.90;;;;;;5071475;28;20387;-73
2021/09/25 01:23:04;;;;;;;0.40;0.40;;;11.60;99.90;;;;;;5070069;28;20384;-73
2021/09/25 01:25:31;;;;;;;0.40;0.20;;;11.60;99.90;;;;;;5071037;28;20378;-73
2021/09/25 01:27:57;;;;;;;0.40;0.20;;;11.60;99.90;;;;;;5071230;28;20387;-73
2021/09/25 01:30:22;;;;;;;0.40;0.25;;;11.60;99.90;;;;;;5070473;28;21015;-73
2021/09/25 01:32:50;;;;;;;0.40;0.20;;;11.70;99.90;;;;;;5070060;28;20392;-73
2021/09/25 01:35:18;;;;;;;0.40;0.20;;;11.70;99.90;;;;;;5069975;28;20478;-73
2021/09/25 01:37:47;;;;;;;0.40;0.30;;;11.70;99.90;;;;;;5071085;28;20368;-73
2021/09/25 01:40:14;;;;;;;0.40;0.30;;;11.60;99.90;;;;;;5069933;28;20392;-74
2021/09/25 01:42:41;;;;;;;0.40;0.30;;;11.70;99.90;;;;;;5066051;28;20474;-73
2021/09/25 01:45:08;;;;;;;0.40;0.20;;;11.70;99.90;;;;;;5069472;28;20906;-73
2021/09/25 01:47:34;;;;;;;0.40;0.20;;;11.70;99.90;;;;;;5070782;28;20414;-73
2021/09/25 01:50:02;;;;;;;0.40;0.30;;;11.70;99.90;;;;;;5070849;28;20407;-73
2021/09/25 01:52:28;;;;;;;0.40;0.20;;;11.70;99.90;;;;;;5070070;28;20414;-73
2021/09/25 01:54:54;;;;;;;0.40;0.20;;;11.60;99.90;;;;;;5069952;28;20779;-73
2021/09/25 01:57:20;;;;;;;0.40;0.30;;;11.50;99.90;;;;;;5069198;28;20454;-73
2021/09/25 01:59:46;;;;;;;0.40;0.20;;;11.60;99.90;;;;;;5070800;28;20483;-73
2021/09/25 02:02:12;;;;;;;0.40;0.30;;;11.50;99.90;;;;;;5069957;28;20725;-73
2021/09/25 02:04:39;;;;;;;0.40;0.30;;;11.50;99.90;;;;;;5070149;28;21036;-73
2021/09/25 02:07:07;;;;;;;0.40;0.30;;;11.50;99.90;;;;;;5064327;28;20393;-73
2021/09/25 02:09:33;;;;;;;0.40;0.20;;;11.50;99.90;;;;;;5049959;28;20385;-73
2021/09/25 02:11:59;;;;;;;0.40;0.20;;;11.50;99.90;;;;;;5050531;28;20434;-73
2021/09/25 02:14:24;;;;;;;0.40;0.20;;;11.50;99.90;;;;;;5063088;28;20427;-73
2021/09/25 02:16:50;;;;;;;0.40;0.20;;;11.50;99.90;;;;;;5070061;28;20396;-73
2021/09/25 02:19:15;;;;;;;0.40;0.20;;;11.50;99.90;;;;;;5069538;28;20403;-73
2021/09/25 02:21:41;;;;;;;0.40;0.30;;;11.50;99.90;;;;;;5052331;28;20450;-73
2021/09/25 02:24:07;;;;;;;0.43;0.38;;;11.50;99.90;;;;;;5068396;28;20384;-73
2021/09/25 02:26:34;;;;;;;0.40;0.20;;;11.50;99.90;;;;;;5052194;28;20438;-73
2021/09/25 02:28:59;;;;;;;0.40;0.20;;;11.50;99.90;;;;;;5070226;28;20406;-73
2021/09/25 02:31:25;;;;;;;0.40;0.20;;;11.60;99.90;;;;;;5069472;28;20379;-73
2021/09/25 02:33:51;;;;;;;0.40;0.20;;;11.70;99.90;;;;;;5069150;28;20404;-73
2021/09/25 02:36:16;;;;;;;0.40;0.30;;;11.60;99.90;;;;;;5068766;28;20387;-73
2021/09/25 02:38:42;;;;;;;0.40;0.20;;;11.70;99.90;;;;;;5069889;28;20379;-74
2021/09/25 02:41:08;;;;;;;0.40;0.20;;;11.80;99.90;;;;;;5069334;28;20372;-73
2021/09/25 02:43:34;;;;;;;0.40;0.30;;;11.80;99.90;;;;;;5065231;28;20417;-75
2021/09/25 02:45:59;;;;;;;0.40;0.20;;;11.80;99.90;;;;;;5069194;28;20415;-73
2021/09/25 02:48:25;;;;;;;0.40;0.20;;;11.80;99.90;;;;;;5068931;28;20590;-73
2021/09/25 02:50:51;;;;;;;0.40;0.20;;;11.80;99.90;;;;;;5052040;28;20470;-73
2021/09/25 02:53:16;;;;;;;0.40;0.20;;;11.90;99.90;;;;;;5068697;28;20456;-73
2021/09/25 02:55:42;;;;;;;0.40;0.20;;;11.90;99.90;;;;;;5051631;28;20388;-73
2021/09/25 02:58:08;;;;;;;0.40;0.20;;;11.80;99.90;;;;;;5069162;28;20363;-73
2021/09/25 03:01:09;;;;;;;0.40;0.28;;;11.80;99.90;;;;;;5069482;28;20388;-73
2021/09/25 03:03:34;;;;;;;0.40;0.20;;;11.90;99.90;;;;;;5063699;28;20396;-73
2021/09/25 03:06:00;;;;;;;0.40;0.20;;;11.70;99.90;;;;;;5069536;28;20380;-73
2021/09/25 03:08:26;;;;;;;0.40;0.20;;;11.80;99.90;;;;;;5057027;28;20400;-73
2021/09/25 03:10:51;;;;;;;0.40;0.20;;;11.70;99.90;;;;;;5055728;28;20393;-73
2021/09/25 03:13:17;;;;;;;0.40;0.20;;;11.80;99.90;;;;;;5057543;28;20415;-73
2021/09/25 03:15:43;;;;;;;0.40;0.20;;;11.90;99.90;;;;;;5076052;28;20391;-73
2021/09/25 03:18:09;;;;;;;0.40;0.30;;;11.90;99.90;;;;;;5075507;28;20384;-73
2021/09/25 03:20:35;;;;;;;0.40;0.20;;;11.90;99.90;;;;;;5076245;28;20378;-73
2021/09/25 03:23:01;;;;;;;0.40;0.20;;;11.90;99.90;;;;;;5058118;28;20456;-73
2021/09/25 03:25:26;;;;;;;0.40;0.30;;;11.90;99.90;;;;;;5075108;28;20662;-73
2021/09/25 03:27:54;;;;;;;0.40;0.30;;;11.90;99.90;;;;;;5075979;28;20371;-73
2021/09/25 03:30:21;;;;;;;0.40;0.20;;;11.60;99.90;;;;;;5075389;28;20473;-73
2021/09/25 03:32:47;;;;;;;0.40;0.30;;;11.60;99.90;;;;;;5076111;28;20379;-73
2021/09/25 03:35:13;;;;;;;0.40;0.20;;;11.50;99.90;;;;;;5074814;28;20459;-72
2021/09/25 03:37:38;;;;;;;0.40;0.30;;;11.60;99.90;;;;;;5075908;28;20382;-73
2021/09/25 03:40:05;;;;;;;0.40;0.20;;;11.60;99.90;;;;;;5058177;28;20390;-72
2021/09/25 03:42:31;;;;;;;0.40;0.20;;;11.70;99.90;;;;;;5075235;28;20468;-72
2021/09/25 03:44:57;;;;;;;0.40;0.30;;;11.60;99.90;;;;;;5071870;28;20485;-73
2021/09/25 03:47:22;;;;;;;0.40;0.30;;;11.60;99.90;;;;;;5074738;28;20490;-72
2021/09/25 03:49:51;;;;;;;0.40;0.20;;;11.50;99.90;;;;;;5076032;28;20783;-73
2021/09/25 03:52:17;;;;;;;0.40;0.20;;;11.60;99.90;;;;;;5075400;28;20379;-72
2021/09/25 03:54:43;;;;;;;0.40;0.30;;;11.50;99.90;;;;;;5057558;28;20741;-73
2021/09/25 03:57:08;;;;;;;0.40;0.30;;;11.40;99.90;;;;;;5075576;28;20410;-73
2021/09/25 03:59:34;;;;;;;0.40;0.30;;;11.50;99.90;;;;;;5057655;28;20744;-73
2021/09/25 04:02:00;;;;;;;0.40;0.20;;;11.50;99.90;;;;;;5075640;28;20388;-74
2021/09/25 04:04:26;;;;;;;0.40;0.20;;;11.50;99.90;;;;;;5056562;28;20437;-74
2021/09/25 04:06:52;;;;;;;0.40;0.20;;;11.40;99.90;;;;;;5071765;28;20853;-74
2021/09/25 04:09:17;;;;;;;0.40;0.30;;;11.40;99.90;;;;;;5055307;28;20723;-74
2021/09/25 04:11:48;;;;;;;0.40;0.30;;;11.40;99.90;;;;;;5055349;28;20392;-74
2021/09/25 04:14:18;;;;;;;0.40;0.30;;;11.40;99.90;;;;;;5062279;28;20431;-74
2021/09/25 04:16:44;;;;;;;0.40;0.20;;;11.40;99.90;;;;;;5076093;28;20398;-74
2021/09/25 04:19:10;;;;;;;0.40;0.20;;;11.40;99.90;;;;;;5073278;28;20388;-73
2021/09/25 04:21:41;;;;;;;0.40;0.20;;;11.40;99.90;;;;;;5072774;28;20693;-74
2021/09/25 04:24:07;;;;;;;0.40;0.20;;;11.40;99.90;;;;;;5072271;28;20396;-74
2021/09/25 04:26:33;;;;;;;0.40;0.30;;;11.50;99.90;;;;;;5071521;28;20768;-74
2021/09/25 04:28:59;;;;;;;0.40;0.30;;;11.60;99.90;;;;;;5072464;28;20383;-74
2021/09/25 04:31:25;;;;;;;0.40;0.20;;;11.50;99.90;;;;;;5054105;28;20883;-73
2021/09/25 04:33:51;;;;;;;0.40;0.20;;;11.60;99.90;;;;;;5072260;28;20412;-73
2021/09/25 04:36:17;;;;;;;0.40;0.20;;;11.50;99.90;;;;;;5070743;28;20441;-73
2021/09/25 04:38:43;;;;;;;0.40;0.20;;;11.60;99.90;;;;;;5072478;28;20815;-74
2021/09/25 04:41:08;;;;;;;0.40;0.20;;;11.60;99.90;;;;;;5072536;28;20459;-73
2021/09/25 04:43:34;;;;;;;0.40;0.20;;;11.70;99.90;;;;;;5065746;28;20514;-74
2021/09/25 04:46:16;;;;;;;0.40;0.30;;;11.70;99.90;;;;;;5070935;28;20755;-74
2021/09/25 04:48:42;;;;;;;0.40;0.30;;;11.70;99.90;;;;;;5072067;28;20414;-73
2021/09/25 04:51:08;;;;;;;0.40;0.20;;;11.80;99.90;;;;;;5072340;28;20442;-74
2021/09/25 04:53:34;;;;;;;0.40;0.30;;;11.80;99.90;;;;;;5071349;28;20940;-74
2021/09/25 04:56:00;;;;;;;0.40;0.20;;;11.90;99.90;;;;;;5071408;28;20382;-74
2021/09/25 04:58:29;;;;;;;0.40;0.30;;;11.80;99.90;;;;;;5071242;28;20383;-73
2021/09/25 05:00:58;;;;;;;0.40;0.20;;;11.80;99.90;;;;;;5071908;28;20384;-73
2021/09/25 05:03:24;;;;;;;0.40;0.20;;;11.80;99.90;;;;;;5071292;28;20396;-73
2021/09/25 05:05:50;;;;;;;0.40;0.30;;;11.70;99.90;;;;;;5071565;28;20828;-74
2021/09/25 05:08:16;;;;;;;0.40;0.25;;;11.80;99.90;;;;;;5055610;28;20400;-74
2021/09/25 05:10:42;;;;;;;0.40;0.20;;;11.80;99.90;;;;;;5051553;28;20381;-74
2021/09/25 05:13:07;;;;;;;0.40;0.20;;;11.80;99.90;;;;;;5051398;28;20481;-74
2021/09/25 05:15:33;;;;;;;0.40;0.30;;;11.80;99.90;;;;;;5066360;28;20388;-73
2021/09/25 05:17:59;;;;;;;0.40;0.30;;;11.80;99.90;;;;;;5071306;28;20388;-74
2021/09/25 05:20:25;;;;;;;0.40;0.30;;;11.70;99.90;;;;;;5071019;28;20380;-74
2021/09/25 05:22:50;;;;;;;0.40;0.30;;;11.60;99.90;;;;;;5071360;28;20384;-73
2021/09/25 05:25:16;;;;;;;0.40;0.30;;;11.50;99.90;;;;;;5070163;28;20425;-73
2021/09/25 05:27:42;;;;;;;0.40;0.30;;;11.50;99.90;;;;;;5071213;28;20472;-73
2021/09/25 05:30:09;;;;;;;0.40;0.20;;;11.50;99.90;;;;;;5071115;28;20903;-73
2021/09/25 05:32:35;;;;;;;0.40;0.30;;;11.50;99.90;;;;;;5052353;28;20891;-73
2021/09/25 05:35:01;;;;;;;0.40;0.30;;;11.60;99.90;;;;;;5053096;28;20414;-73
2021/09/25 05:37:27;;;;;;;0.40;0.30;;;11.50;99.90;;;;;;5070052;28;20400;-73
2021/09/25 05:39:55;;;;;;;0.40;0.30;;;11.50;99.90;;;;;;5071182;28;20376;-73
2021/09/25 05:42:28;;;;;;;0.40;0.30;;;11.50;99.90;;;;;;5070414;28;20413;-73
2021/09/25 05:44:54;;;;;;;0.40;0.30;;;11.40;99.90;;;;;;5067177;28;20438;-73
2021/09/25 05:47:21;;;;;;;0.40;0.20;;;11.40;99.90;;;;;;5069684;28;20387;-74
2021/09/25 05:49:47;;;;;;;0.40;0.30;;;11.50;99.90;;;;;;5071023;28;20414;-74
2021/09/25 05:52:14;;;;;;;0.40;0.20;;;11.50;99.90;;;;;;5070940;28;20388;-74
2021/09/25 05:54:40;;;;;;;0.40;0.20;;;11.50;99.90;;;;;;5070001;28;20400;-73
2021/09/25 05:57:09;;;;;;;0.40;0.30;;;11.60;99.90;;;;;;5070309;28;20379;-73
2021/09/25 05:59:35;;;;;;;0.40;0.30;;;11.60;99.90;;;;;;5070030;28;20387;-73
2021/09/25 06:02:02;;;;;;;0.40;0.20;;;11.70;99.90;;;;;;5070730;28;20376;-72
2021/09/25 06:04:28;;;;;;;0.40;0.20;;;11.70;99.90;;;;;;5069716;28;20394;-73
2021/09/25 06:06:54;;;;;;;0.40;0.20;;;11.80;99.90;;;;;;5065975;28;20476;-73
2021/09/25 06:09:19;;;;;;;0.40;0.30;;;11.90;99.90;;;;;;5050008;28;20516;-73
2021/09/25 06:11:45;;;;;;;0.40;0.30;;;11.70;99.90;;;;;;5032750;28;20440;-73
2021/09/25 06:14:11;;;;;;;0.40;0.30;;;11.80;99.90;;;;;;5052587;28;20430;-73
2021/09/25 06:16:37;;;;;;;0.40;0.20;;;11.80;99.90;;;;;;5068519;28;20463;-73
2021/09/25 06:19:02;;;;;;;0.40;0.20;;;11.80;99.90;;;;;;5052143;28;20382;-74
2021/09/25 06:21:28;;;;;;;0.40;0.30;;;12.00;99.90;;;;;;5049835;28;20392;-74
2021/09/25 06:23:53;;;;;;;0.40;0.30;;;12.10;99.90;;;;;;5064853;28;20384;-74
2021/09/25 06:26:19;;;;;;;0.40;0.20;;;12.10;99.90;;;;;;5051265;28;20392;-74
2021/09/25 06:28:46;;;;;;;0.40;0.20;;;12.20;99.90;;;;;;5070403;28;20375;-74
2021/09/25 06:31:13;;;;;;;0.40;0.30;;;12.10;99.90;;;;;;5069354;28;20844;-74
2021/09/25 06:33:39;;;;;;;0.40;0.30;;;12.10;99.90;;;;;;5068144;28;20423;-74
2021/09/25 06:36:05;;;;;;;0.40;0.30;;;12.20;99.90;;;;;;5066120;28;20505;-74
2021/09/25 06:38:30;;;;;;;0.40;0.30;;;12.30;99.90;;;;;;5037462;28;20399;-74
2021/09/25 06:40:56;;;;;;;0.40;0.20;;;12.30;99.90;;;;;;5043512;28;20394;-75
2021/09/25 06:43:22;;;;;;;0.40;0.20;;;12.40;99.90;;;;;;5031227;28;20426;-74
2021/09/25 06:45:47;;;;;;;0.40;0.20;;;12.40;99.90;;;;;;5038333;28;20438;-74
2021/09/25 06:48:13;;;;;;;0.40;0.20;;;12.50;99.90;;;;;;5025373;28;20397;-74
2021/09/25 06:50:39;;;;;;;0.40;0.20;;;12.70;99.90;;;;;;5037701;28;20416;-74
2021/09/25 06:53:04;;;;;;;0.40;0.30;;;12.70;99.90;;;;;;5035970;28;20392;-74
2021/09/25 06:55:30;;;;;;;0.40;0.20;;;12.80;99.90;;;;;;5032283;28;20791;-76
2021/09/25 06:57:56;;;;;;;0.40;0.20;;;12.70;99.90;;;;;;5035338;28;20395;-74
2021/09/25 07:00:22;;;;;;;0.40;0.30;;;12.90;99.90;;;;;;5019874;28;20392;-73
2021/09/25 07:02:48;;;;;;;0.40;0.20;;;13.00;99.90;;;;;;5020333;28;20415;-74
2021/09/25 07:05:14;;;;;;;0.40;0.30;;;13.10;99.90;;;;;;5021927;28;20476;-74
2021/09/25 07:07:39;;;;;;;0.40;0.30;;;13.20;99.90;;;;;;5048389;28;21058;-74
2021/09/25 07:10:06;;;;;;;0.40;0.30;;;13.10;99.90;;;;;;5049663;28;20426;-75
2021/09/25 07:12:32;;;;;;;0.40;0.30;;;13.30;99.90;;;;;;5031280;28;20393;-74
2021/09/25 07:14:58;;;;;;;0.40;0.20;;;13.40;99.90;;;;;;5056590;28;20478;-74
2021/09/25 07:17:24;;;;;;;0.40;0.20;;;13.50;99.90;;;;;;5068864;28;20418;-74
2021/09/25 07:19:50;;;;;;;0.40;0.20;;;13.60;99.90;;;;;;5052081;28;20428;-75
2021/09/25 07:22:16;;;;;;;0.40;0.30;;;13.70;99.90;;;;;;5069368;28;20371;-75
2021/09/25 07:24:42;;;;;;;0.40;0.30;;;13.70;99.90;;;;;;5068611;28;20390;-75
2021/09/25 07:27:07;;;;;;;0.50;0.40;;;13.90;99.90;;;;;;5068590;28;20391;-76
2021/09/25 07:29:37;;;;;;;0.40;0.30;;;13.90;99.90;;;;;;5051539;28;20391;-75
2021/09/25 07:32:07;;;;;;;0.40;0.30;;;14.00;99.90;;;;;;5070044;28;20880;-75
2021/09/25 07:34:32;;;;;;;0.40;0.20;;;14.10;99.90;;;;;;5068926;28;20399;-76
2021/09/25 07:36:58;;;;;;;0.40;0.30;;;14.20;99.90;;;;;;5067653;28;20410;-75
2021/09/25 07:39:24;;;;;;;0.40;0.20;;;14.30;99.90;;;;;;5050161;28;20398;-76
2021/09/25 07:41:50;;;;;;;0.40;0.30;;;14.40;99.90;;;;;;5069584;28;20386;-76
2021/09/25 07:44:17;;;;;;;0.40;0.30;;;14.40;99.90;;;;;;5064506;28;20387;-76
2021/09/25 07:46:43;;;;;;;0.40;0.30;;;14.50;99.90;;;;;;5029011;28;20882;-76
2021/09/25 07:49:08;;;;;;;0.40;0.30;;;14.70;99.90;;;;;;5029494;28;20386;-75
2021/09/25 07:51:34;;;;;;;0.40;0.30;;;14.80;99.90;;;;;;5029311;28;20887;-75
2021/09/25 07:54:00;;;;;;;0.40;0.30;;;15.00;99.90;;;;;;5029421;28;20414;-75
2021/09/25 07:56:25;;;;;;;0.40;0.20;;;15.10;99.90;;;;;;5032772;28;20441;-74
2021/09/25 07:58:53;;;;;;;0.40;0.30;;;15.30;99.90;;;;;;4999218;28;20955;-76
2021/09/25 08:01:19;;;;;;;1.00;0.70;;;15.40;99.90;;;;;;5033485;28;20397;-74
2021/09/25 08:03:46;;;;;;;0.40;0.30;;;15.50;99.90;;;;;;5031960;28;20399;-77
2021/09/25 08:06:11;;;;;;;0.40;0.30;;;15.70;99.90;;;;;;5032818;28;20383;-75
2021/09/25 08:08:37;;;;;;;0.40;0.20;;;15.70;99.90;;;;;;5015085;28;20406;-72
2021/09/25 08:11:05;;;;;;;0.40;0.30;;;15.70;99.90;;;;;;5032788;28;20756;-73
2021/09/25 08:13:32;;;;;;;0.40;0.30;;;15.80;99.90;;;;;;5032639;28;20403;-73
2021/09/25 08:15:58;;;;;;;0.40;0.30;;;15.90;99.90;;;;;;5061429;28;20419;-74
2021/09/25 08:18:26;;;;;;;0.40;0.30;;;15.90;99.90;;;;;;5071935;28;20756;-73
2021/09/25 08:20:52;;;;;;;0.40;0.30;;;15.90;99.90;;;;;;5066028;28;20382;-73
2021/09/25 08:23:17;;;;;;;0.40;0.25;;;16.10;99.90;;;;;;5052623;28;20861;-73
2021/09/25 08:25:43;;;;;;;0.40;0.30;;;16.10;99.90;;;;;;5052210;28;20389;-74
2021/09/25 08:28:09;;;;;;;0.40;0.30;;;16.20;99.90;;;;;;5052501;28;20413;-74
2021/09/25 08:30:35;;;;;;;0.40;0.28;;;16.30;99.90;;;;;;5051550;28;20382;-75
2021/09/25 08:33:01;;;;;;;0.40;0.20;;;16.40;99.90;;;;;;5052774;28;20717;-73
2021/09/25 08:35:28;;;;;;;0.40;0.30;;;16.40;99.90;;;;;;5033844;28;20421;-74
2021/09/25 08:37:54;;;;;;;0.40;0.30;;;16.50;99.90;;;;;;5034265;28;20382;-74
2021/09/25 08:40:21;;;;;;;0.40;0.20;;;16.60;99.90;;;;;;5052211;28;20464;-73
2021/09/25 08:42:48;;;;;;;0.40;0.30;;;16.60;99.90;;;;;;5051491;28;20373;-73
2021/09/25 08:45:14;;;;;;;0.40;0.30;;;16.70;99.90;;;;;;5050548;28;20765;-73
2021/09/25 08:47:40;;;;;;;0.40;0.20;;;16.80;99.90;;;;;;5051096;28;20398;-73
2021/09/25 08:50:08;;;;;;;0.40;0.20;;;17.00;99.90;;;;;;5052180;28;20381;-73
2021/09/25 08:52:34;;;;;;;0.40;0.30;;;17.00;99.90;;;;;;5049983;28;20388;-72
2021/09/25 08:54:59;;;;;;;0.40;0.30;;;17.30;99.90;;;;;;5050303;28;20408;-74
2021/09/25 08:57:25;;;;;;;0.40;0.30;;;17.30;99.90;;;;;;5051981;28;20402;-73
2021/09/25 08:59:51;;;;;;;0.40;0.30;;;17.30;99.90;;;;;;5050894;28;20389;-73
2021/09/25 09:02:22;;;;;;;0.40;0.20;;;17.50;99.90;;;;;;5051995;28;20452;-73
2021/09/25 09:04:54;;;;;;;0.40;0.20;;;17.60;99.90;;;;;;5050851;28;20389;-72
2021/09/25 09:07:22;;;;;;;0.40;0.20;;;17.70;99.90;;;;;;5051786;28;20389;-74
2021/09/25 09:09:49;;;;;;;0.40;0.20;;;17.80;99.90;;;;;;5050706;28;20864;-75
2021/09/25 09:12:20;;;;;;;0.40;0.30;;;17.80;99.90;;;;;;5051856;28;20400;-74
2021/09/25 09:14:48;;;;;;;0.40;0.20;;;17.80;99.90;;;;;;5030641;28;20900;-73
2021/09/25 09:17:27;;;;;;;0.40;0.20;;;17.90;99.90;;;;;;5051462;28;20436;-75
2021/09/25 09:19:53;;;;;;;0.40;0.30;;;18.10;99.90;;;;;;5037353;28;20394;-73
2021/09/25 09:22:21;;;;;;;0.40;0.30;;;18.10;99.90;;;;;;5051330;28;20381;-75
2021/09/25 09:24:55;;;;;;;0.40;0.20;;;18.40;99.90;;;;;;5049958;28;20381;-75
2021/09/25 09:27:25;;;;;;;0.40;0.20;;;18.40;99.90;;;;;;5051489;28;20858;-76
2021/09/25 09:30:06;;;;;;;0.40;0.30;;;18.50;99.90;;;;;;5050369;28;20404;-74
2021/09/25 09:32:34;;;;;;;0.40;0.20;;;18.60;99.90;;;;;;5050069;28;20842;-75
2021/09/25 09:35:11;;;;;;;0.40;0.20;;;18.70;99.90;;;;;;5051547;28;20444;-75
2021/09/25 09:37:37;;;;;;;0.40;0.20;;;18.80;99.90;;;;;;5016003;28;20424;-76
2021/09/25 09:40:05;;;;;;;0.40;0.30;;;18.80;99.90;;;;;;5051251;28;20400;-76
2021/09/25 09:42:32;;;;;;;0.40;0.20;;;18.90;99.90;;;;;;5032992;28;20885;-75
2021/09/25 09:45:03;;;;;;;0.40;0.20;;;19.10;99.90;;;;;;5051202;28;20496;-74
2021/09/25 09:47:28;;;;;;;0.40;0.30;;;19.20;99.90;;;;;;5071393;28;20852;-74
2021/09/25 09:49:57;;;;;;;0.40;0.20;;;19.30;99.90;;;;;;5070064;28;20480;-74
2021/09/25 09:52:23;;;;;;;0.40;0.20;;;19.40;99.90;;;;;;5070882;28;20740;-74
2021/09/25 09:54:53;;;;;;;0.40;0.20;;;19.50;99.90;;;;;;5070242;28;20645;-73
2021/09/25 09:57:21;;;;;;;0.40;0.20;;;19.50;99.90;;;;;;5071314;28;20380;-75
2021/09/25 09:59:49;;;;;;;0.40;0.30;;;19.60;99.90;;;;;;5069690;28;20388;-74
2021/09/25 10:02:15;;;;;;;0.40;0.30;;;19.70;99.90;;;;;;5071089;28;20400;-74
2021/09/25 10:04:41;;;;;;;0.40;0.30;;;19.70;99.90;;;;;;5052720;28;20376;-74
2021/09/25 10:07:08;;;;;;;0.40;0.30;;;20.00;99.90;;;;;;5035489;28;20463;-73
2021/09/25 10:09:40;;;;;;;0.40;0.30;;;20.00;99.90;;;;;;5050111;28;20390;-74
2021/09/25 10:12:17;;;;;;;0.40;0.30;;;20.00;99.90;;;;;;5050754;28;20459;-74
2021/09/25 10:14:46;;;;;;;0.40;0.30;;;20.00;99.90;;;;;;5050935;28;20909;-75
2021/09/25 10:17:13;;;;;;;0.40;0.30;;;20.10;99.90;;;;;;5033876;28;20397;-76
2021/09/25 10:19:42;;;;;;;0.40;0.20;;;20.10;99.90;;;;;;5050424;28;20431;-75
2021/09/25 10:22:15;;;;;;;0.70;0.70;;;20.30;99.90;;;;;;5050853;28;20431;-75
2021/09/25 10:24:52;;;;;;;0.40;0.30;;;20.30;99.90;;;;;;5050297;28;20378;-75
2021/09/25 10:27:19;;;;;;;0.40;0.30;;;20.50;99.90;;;;;;5052029;28;20381;-76
2021/09/25 10:29:51;;;;;;;0.40;0.30;;;20.50;99.90;;;;;;5051174;28;20369;-75
2021/09/25 10:32:27;;;;;;;0.40;0.20;;;20.60;99.90;;;;;;5051534;28;20375;-76
2021/09/25 10:34:53;;;;;;;0.40;0.20;;;20.70;99.90;;;;;;5051085;28;20441;-74
2021/09/25 10:37:20;;;;;;;0.40;0.30;;;20.90;99.90;;;;;;5051750;28;20428;-75
2021/09/25 10:39:57;;;;;;;0.40;0.30;;;21.00;99.90;;;;;;5050752;28;20386;-76
2021/09/25 10:42:38;;;;;;;0.40;0.20;;;21.00;99.90;;;;;;5051733;28;20465;-75
2021/09/25 10:45:08;;;;;;;0.40;0.30;;;21.20;99.90;;;;;;5051092;28;20401;-75
2021/09/25 10:47:34;;;;;;;0.40;0.20;;;21.20;99.90;;;;;;5050959;28;20746;-75
2021/09/25 10:50:01;;;;;;;0.40;0.30;;;21.30;99.90;;;;;;5051352;28;20381;-75
2021/09/25 10:52:49;;;;;;;0.40;0.30;;;21.30;99.90;;;;;;5033726;28;20447;-74
2021/09/25 10:55:23;;;;;;;0.40;0.20;;;21.40;99.90;;;;;;5051489;28;20406;-74
2021/09/25 10:58:13;;;;;;;0.40;0.30;;;21.60;99.90;;;;;;5050899;28;20393;-74
2021/09/25 11:00:56;;;;;;;0.40;0.30;;;21.80;99.90;;;;;;5050394;28;20849;-75
2021/09/25 11:03:43;;;;;;;0.40;0.20;;;22.00;99.90;;;;;;5051431;28;20378;-74
2021/09/25 11:06:38;;;;;;;0.40;0.20;;;22.10;99.20;;;;;;5051395;28;20385;-77
2021/09/25 11:09:25;;;;;;;0.40;0.20;;;22.30;98.30;;;;;;5031417;28;20398;-77
2021/09/25 11:11:56;;;;;;;0.40;0.30;;;22.50;98.80;;;;;;5013079;28;20391;-76
2021/09/25 11:14:26;;;;;;;0.40;0.30;;;22.80;98.30;;;;;;5031116;28;20419;-75
2021/09/25 11:17:15;;;;;;;0.40;0.20;;;23.00;96.70;;;;;;5013026;28;20403;-75
2021/09/25 11:20:10;;;;;;;0.40;0.30;;;23.20;96.30;;;;;;5030829;28;20402;-74
2021/09/25 11:22:44;;;;;;;0.40;0.30;;;23.30;95.70;;;;;;5029183;28;20608;-75
2021/09/25 11:25:19;;;;;;;0.40;0.20;;;23.90;95.90;;;;;;5031228;28;20901;-74
2021/09/25 11:27:47;;;;;;;0.70;0.50;;;24.00;95.00;;;;;;5030794;28;20387;-75
2021/09/25 11:30:26;;;;;;;0.40;0.30;;;24.10;93.70;;;;;;5035130;28;20390;-75
2021/09/25 11:33:01;;;;;;;0.40;0.20;;;24.50;94.20;;;;;;5034335;28;20390;-73
2021/09/25 11:35:32;;;;;;;0.40;0.30;;;24.20;93.20;;;;;;5017334;28;20762;-73
2021/09/25 11:38:00;;;;;;;0.40;0.30;;;23.80;93.30;;;;;;5034525;28;20391;-74
2021/09/25 11:40:32;;;;;;;0.40;0.30;;;23.70;94.10;;;;;;5035254;28;20397;-74
2021/09/25 11:43:00;;;;;;;0.40;0.30;;;23.30;94.60;;;;;;5034254;28;20417;-74
2021/09/25 11:45:29;;;;;;;0.40;0.30;;;23.00;94.70;;;;;;5034290;28;20910;-74
2021/09/25 11:48:20;;;;;;;0.40;0.20;;;23.20;94.90;;;;;;5033924;28;20507;-74
2021/09/25 11:50:49;;;;;;;0.40;0.20;;;22.80;95.70;;;;;;5034561;28;20387;-75
2021/09/25 11:53:18;;;;;;;0.40;0.30;;;23.50;95.60;;;;;;5034659;28;20378;-74
2021/09/25 11:55:45;;;;;;;0.40;0.30;;;24.00;94.80;;;;;;5033786;28;20418;-74
2021/09/25 11:58:16;;;;;;;0.40;0.20;;;24.00;93.80;;;;;;5034825;28;20767;-74
2021/09/25 12:00:45;;;;;;;0.40;0.30;;;24.10;93.20;;;;;;5033872;28;20739;-74
2021/09/25 12:03:12;;;;;;;0.40;0.30;;;24.10;93.90;;;;;;5034744;28;20461;-74
2021/09/25 12:05:39;;;;;;;0.40;0.20;;;24.50;92.70;;;;;;5033907;28;20387;-74
2021/09/25 12:08:13;;;;;;;0.40;0.20;;;24.70;92.50;;;;;;5027126;28;20740;-75
2021/09/25 12:10:42;;;;;;;0.40;0.20;;;25.00;91.90;;;;;;5033632;28;20910;-75
2021/09/25 12:13:14;;;;;;;0.40;0.20;;;24.60;90.90;;;;;;5034424;28;20907;-74
2021/09/25 12:15:41;;;;;;;0.40;0.20;;;25.30;91.60;;;;;;5033313;28;20482;-74
2021/09/25 12:18:23;;;;;;;0.40;0.30;;;25.10;91.50;;;;;;5034321;28;20380;-75
2021/09/25 12:20:56;;;;;;;0.40;0.20;;;24.80;92.20;;;;;;5015911;28;20403;-75
2021/09/25 12:23:23;;;;;;;0.40;0.20;;;24.60;93.00;;;;;;5034307;28;20406;-74
2021/09/25 12:25:51;;;;;;;0.40;0.30;;;24.40;93.50;;;;;;5033400;28;20388;-75
2021/09/25 12:28:28;;;;;;;0.40;0.20;;;25.10;93.20;;;;;;5034484;28;20925;-75
2021/09/25 12:30:57;;;;;;;0.40;0.30;;;25.50;92.60;;;;;;5033199;28;20864;-75
2021/09/25 12:33:23;;;;;;;0.40;0.30;;;26.10;91.90;;;;;;5033994;28;20389;-75
2021/09/25 12:36:04;;;;;;;0.40;0.30;;;25.50;90.40;;;;;;5033381;28;20462;-76
2021/09/25 12:38:37;;;;;;;0.40;0.20;;;25.60;90.10;;;;;;5033980;28;20394;-75
2021/09/25 12:41:07;;;;;;;0.40;0.20;;;25.80;91.70;;;;;;5032289;28;20379;-73
2021/09/25 12:43:40;;;;;;;0.40;0.28;;;26.20;90.80;;;;;;5033598;28;20856;-73
2021/09/25 12:46:29;;;;;;;0.40;0.30;;;25.80;89.20;;;;;;5033629;28;20407;-73
2021/09/25 12:49:04;;;;;;;0.40;0.30;;;25.60;90.90;;;;;;5033252;28;20390;-74
2021/09/25 12:51:51;;;;;;;0.40;0.30;;;24.80;91.20;;;;;;5033778;28;20408;-74